Pontypridd, United Kingdom
Current Conditions -  °F | °C
As of 6:20 PM on Thursday 27 Nov 2014 (Local Time) from EGFF Reporting Station
Overcast Overcast  
Wind Chill: 43°   Ceiling: 900
Heat Index: 48°   Visibility: 5mi
Dew Point: 46°   Wind: 12mph
Humidity: 93%   Direction: 80°E
Pressure: 29.5"   Gusts: NA
Location:  51.6°N, 3.35°W
Report Text: EGFF 271820Z AUTO 08010KT 8000 OVC009 09/08 Q0999
Loading
Personal Weather Stations






























Interactive Weather Map New forecast layout! Learn more

10-Day Weather Forecast

Advertisements
Track Severe Weather on mobile